Time;durP1;ratioP1;P1;durP2;ratioP2;P2;SDS_P1;SDS_P2;PMS_P1;PMS_P2;Temp;Humidity;BMP_temperature;BMP_pressure;BME280_temperature;BME280_humidity;BME280_pressure;Samples;Min_cycle;Max_cycle;Signal;HPM_P1;HPM_P2
2023/09/10 00:01:08;;;;;;;;;8.75;8.00;;;;;27.94;39.61;100836.25;6189022;22;45260;-83
2023/09/10 00:03:34;;;;;;;;;10.00;10.00;;;;;27.95;39.96;100835.22;6187479;23;45309;-81
2023/09/10 00:06:00;;;;;;;;;13.75;12.50;;;;;27.90;40.27;100834.97;6188637;22;45592;-80
2023/09/10 00:08:26;;;;;;;;;14.75;13.75;;;;;27.90;40.30;100832.22;6187588;23;45299;-81
2023/09/10 00:10:52;;;;;;;;;12.00;10.40;;;;;27.82;39.86;100824.13;6187895;23;45205;-81
2023/09/10 00:13:17;;;;;;;;;13.25;10.75;;;;;27.65;39.94;100804.41;6188884;22;45214;-82
2023/09/10 00:15:43;;;;;;;;;11.50;10.00;;;;;27.68;40.03;100812.19;6189789;23;45251;-80
2023/09/10 00:18:09;;;;;;;;;11.50;11.25;;;;;27.77;40.55;100826.59;6188981;22;45130;-80
2023/09/10 00:20:34;;;;;;;;;11.00;10.75;;;;;27.69;40.33;100823.97;6185334;23;45175;-82
2023/09/10 00:23:00;;;;;;;;;12.25;10.25;;;;;27.68;40.84;100827.75;6186450;23;45741;-85
2023/09/10 00:25:25;;;;;;;;;12.75;11.25;;;;;27.64;40.27;100835.50;6186257;23;45400;-82
2023/09/10 00:27:50;;;;;;;;;10.75;9.00;;;;;27.60;40.81;100832.25;6188270;22;45319;-80
2023/09/10 00:30:16;;;;;;;;;13.00;13.00;;;;;27.47;40.62;100821.16;6187821;23;45238;-80
2023/09/10 00:32:41;;;;;;;;;6.75;6.75;;;;;27.50;40.78;100820.78;6186747;23;45834;-80
2023/09/10 00:35:08;;;;;;;;;9.25;9.25;;;;;27.55;40.82;100842.91;6191305;23;50903;-81
2023/09/10 00:37:35;;;;;;;;;11.00;7.25;;;;;27.43;41.06;100825.31;6190731;23;45594;-84
2023/09/10 00:40:00;;;;;;;;;11.80;8.80;;;;;27.47;40.78;100834.81;6191516;22;45379;-83
2023/09/10 00:42:26;;;;;;;;;11.75;10.25;;;;;27.48;40.80;100838.41;6189375;23;50646;-81
2023/09/10 00:44:51;;;;;;;;;8.50;8.50;;;;;27.29;40.72;100812.50;6190978;22;45332;-80
2023/09/10 00:47:16;;;;;;;;;10.25;9.25;;;;;27.38;40.66;100826.94;6191351;23;45299;-84
2023/09/10 00:49:43;;;;;;;;;5.25;5.25;;;;;27.37;41.25;100837.00;6189818;23;45369;-81
2023/09/10 00:52:10;;;;;;;;;9.00;8.75;;;;;27.34;41.34;100842.81;6190869;22;45377;-84
2023/09/10 00:54:35;;;;;;;;;12.25;11.50;;;;;27.25;41.58;100835.78;6192062;22;45629;-82
2023/09/10 00:57:01;;;;;;;;;12.50;8.25;;;;;27.24;41.57;100842.28;6195032;22;45215;-84
2023/09/10 00:59:28;;;;;;;;;12.25;8.75;;;;;27.03;41.40;100808.38;6190229;23;45234;-82
2023/09/10 01:01:55;;;;;;;;;12.00;9.20;;;;;27.18;41.79;100849.31;6192706;22;45304;-81
2023/09/10 01:04:21;;;;;;;;;11.00;11.00;;;;;27.19;41.58;100850.16;6191256;22;45268;-82
2023/09/10 01:06:48;;;;;;;;;14.75;11.00;;;;;27.16;41.51;100845.09;6191858;23;45943;-80
2023/09/10 01:09:13;;;;;;;;;11.75;8.75;;;;;27.09;41.67;100835.97;6191516;23;45261;-81
2023/09/10 01:11:57;;;;;;;;;10.25;9.50;;;;;27.01;41.89;100829.56;6189317;23;45292;-80
2023/09/10 01:14:34;;;;;;;;;8.00;7.00;;;;;26.99;41.80;100830.75;6187904;22;45185;-81
2023/09/10 01:17:05;;;;;;;;;12.75;9.50;;;;;27.08;41.85;100848.75;6186985;23;46650;-80
2023/09/10 01:19:53;;;;;;;;;10.75;10.75;;;;;27.04;42.18;100844.72;6187836;23;45431;-80
2023/09/10 01:22:26;;;;;;;;;13.00;11.50;;;;;27.00;42.27;100846.94;6185036;23;45347;-81
2023/09/10 01:24:51;;;;;;;;;8.00;7.25;;;;;26.87;42.22;100835.81;6187116;23;45336;-81
2023/09/10 01:27:17;;;;;;;;;9.00;7.75;;;;;26.76;42.50;100822.63;6184517;23;46274;-82
2023/09/10 01:29:44;;;;;;;;;10.80;9.80;;;;;26.84;41.86;100825.28;6186373;22;45300;-82
2023/09/10 01:32:14;;;;;;;;;10.25;10.25;;;;;26.95;42.32;100854.81;6185860;22;45198;-82
2023/09/10 01:34:51;;;;;;;;;10.75;10.75;;;;;26.92;42.05;100855.19;6189029;22;45268;-80
2023/09/10 01:37:22;;;;;;;;;12.25;10.75;;;;;26.92;42.42;100855.19;6189152;22;45235;-82
2023/09/10 01:39:53;;;;;;;;;9.00;9.00;;;;;26.90;42.18;100861.88;6187746;22;45136;-83
2023/09/10 01:42:21;;;;;;;;;9.50;9.50;;;;;26.90;42.38;100859.16;6192844;22;45230;-81
2023/09/10 01:44:48;;;;;;;;;6.25;6.25;;;;;26.87;42.02;100857.66;6190928;23;45417;-82
2023/09/10 01:47:13;;;;;;;;;10.00;10.00;;;;;26.84;42.29;100857.19;6189453;22;46310;-82
2023/09/10 01:49:39;;;;;;;;;9.50;9.50;;;;;26.80;42.18;100853.94;6189542;23;45303;-81
2023/09/10 01:52:04;;;;;;;;;9.75;9.25;;;;;26.86;42.28;100864.16;6164760;23;45239;-83
2023/09/10 01:54:29;;;;;;;;;9.25;8.00;;;;;26.74;42.55;100836.47;6192979;22;45447;-84
2023/09/10 01:56:55;;;;;;;;;10.50;10.50;;;;;26.84;42.25;100849.84;6193587;23;64148;-85
2023/09/10 01:59:20;;;;;;;;;9.50;8.00;;;;;26.71;42.31;100827.81;6196360;23;45197;-81
2023/09/10 02:01:45;;;;;;;;;12.00;10.25;;;;;26.84;42.32;100851.72;6191836;22;45218;-82
2023/09/10 02:04:11;;;;;;;;;10.50;9.75;;;;;26.85;42.68;100851.53;6191747;23;50958;-90
2023/09/10 02:06:36;;;;;;;;;8.75;8.50;;;;;26.87;42.55;100857.66;6190578;22;45233;-83
2023/09/10 02:09:02;;;;;;;;;11.25;10.75;;;;;26.87;42.62;100851.34;6190420;23;45379;-81
2023/09/10 02:11:28;;;;;;;;;9.75;9.75;;;;;26.85;42.51;100851.53;6188221;22;45420;-81
2023/09/10 02:13:53;;;;;;;;;8.50;8.50;;;;;26.84;42.17;100851.72;6185180;23;45308;-83
2023/09/10 02:16:19;;;;;;;;;12.00;11.00;;;;;26.83;42.28;100855.50;6184787;23;45338;-80
2023/09/10 02:18:44;;;;;;;;;11.75;10.75;;;;;26.81;42.43;100852.06;6183840;23;45193;-83
2023/09/10 02:21:11;;;;;;;;;8.00;7.00;;;;;26.80;42.48;100843.03;6185228;23;45168;-80
2023/09/10 02:23:37;;;;;;;;;8.75;7.00;;;;;26.81;42.15;100852.91;6184471;22;45428;-80
2023/09/10 02:26:03;;;;;;;;;12.75;10.50;;;;;26.78;42.40;100852.44;6184770;22;45364;-82
2023/09/10 02:28:28;;;;;;;;;13.75;8.50;;;;;26.68;42.46;100845.38;6186526;23;45262;-81
2023/09/10 02:30:53;;;;;;;;;11.75;9.25;;;;;26.79;42.31;100862.31;6189419;23;45201;-79
2023/09/10 02:33:19;;;;;;;;;11.00;9.25;;;;;26.76;42.56;100855.38;6189838;22;45284;-80
2023/09/10 02:35:44;;;;;;;;;8.25;8.25;;;;;26.70;42.47;100850.66;6185339;23;46949;-86
2023/09/10 02:38:09;;;;;;;;;12.25;9.00;;;;;26.70;42.58;100861.56;6187213;23;50812;-81
2023/09/10 02:40:35;;;;;;;;;10.75;8.00;;;;;26.66;42.89;100855.63;6188487;23;45289;-80
2023/09/10 02:43:00;;;;;;;;;8.75;7.00;;;;;26.60;42.90;100847.34;6188958;23;47793;-80
2023/09/10 02:45:25;;;;;;;;;10.50;10.50;;;;;26.60;43.29;100861.81;6194143;23;45716;-81
2023/09/10 02:47:51;;;;;;;;;10.25;8.50;;;;;26.54;43.30;100858.97;6193984;22;45114;-83
2023/09/10 02:50:16;;;;;;;;;9.75;9.75;;;;;26.55;43.43;100868.84;6194374;23;50260;-86
2023/09/10 02:52:41;;;;;;;;;11.50;9.75;;;;;26.46;43.09;100851.72;6195180;22;45225;-86
2023/09/10 02:55:07;;;;;;;;;9.75;9.75;;;;;26.50;43.19;100854.91;6193056;22;45818;-80
2023/09/10 02:57:32;;;;;;;;;11.00;8.75;;;;;26.34;43.46;100840.34;6195735;22;45402;-80
2023/09/10 02:59:58;;;;;;;;;7.00;6.50;;;;;26.45;43.64;100866.38;6189992;23;45347;-84
2023/09/10 03:02:23;;;;;;;;;10.50;9.25;;;;;26.32;43.61;100839.69;6190979;23;45291;-81
2023/09/10 03:04:48;;;;;;;;;8.00;8.00;;;;;26.34;43.57;100851.25;6193501;23;46385;-81
2023/09/10 03:07:14;;;;;;;;;11.50;11.50;;;;;26.24;44.01;100834.28;6198000;22;45252;-82
2023/09/10 03:09:39;;;;;;;;;14.00;9.75;;;;;26.21;44.06;100834.66;6200362;23;52853;-79
2023/09/10 03:12:23;;;;;;;;;9.75;9.00;;;;;26.27;43.90;100850.28;6196832;23;47329;-80
2023/09/10 03:14:49;;;;;;;;;7.00;7.00;;;;;26.23;44.12;100842.66;6189713;22;45194;-82
2023/09/10 03:17:14;;;;;;;;;13.50;11.25;;;;;26.17;44.25;100833.31;6189685;22;45234;-80
2023/09/10 03:19:40;;;;;;;;;12.25;8.50;;;;;26.16;44.33;100831.63;6194968;22;45224;-81
2023/09/10 03:22:06;;;;;;;;;10.75;8.75;;;;;26.16;44.48;100837.06;6191834;23;45277;-80
2023/09/10 03:24:35;;;;;;;;;9.00;9.00;;;;;25.95;44.68;100801.47;6188839;23;46587;-80
2023/09/10 03:27:00;;;;;;;;;12.00;10.25;;;;;26.13;44.39;100826.53;6192711;22;45362;-80
2023/09/10 03:29:25;;;;;;;;;11.50;10.75;;;;;26.11;44.17;100831.31;6197596;22;45277;-81
2023/09/10 03:31:51;;;;;;;;;9.00;8.00;;;;;26.08;44.48;100832.53;6199019;23;45257;-82
2023/09/10 03:34:16;;;;;;;;;8.75;8.75;;;;;26.05;44.38;100829.34;6196711;22;45523;-80
2023/09/10 03:36:41;;;;;;;;;10.00;9.25;;;;;26.03;44.92;100828.63;6196829;23;45364;-80
2023/09/10 03:39:07;;;;;;;;;10.00;10.00;;;;;25.76;44.64;100792.72;6194718;23;58259;-81
2023/09/10 03:41:32;;;;;;;;;8.50;8.50;;;;;25.96;44.96;100822.22;6197394;23;45574;-81
2023/09/10 03:43:59;;;;;;;;;13.50;11.00;;;;;25.92;44.94;100820.91;6192477;22;46279;-84
2023/09/10 03:46:25;;;;;;;;;7.00;7.00;;;;;25.91;45.08;100821.91;6190904;23;45119;-81
2023/09/10 03:48:50;;;;;;;;;12.50;9.50;;;;;25.92;45.02;100834.53;6188865;22;45190;-82
2023/09/10 03:51:16;;;;;;;;;9.75;9.75;;;;;25.74;45.41;100808.38;6188491;23;45156;-80
2023/09/10 03:53:41;;;;;;;;;12.00;10.50;;;;;25.85;45.22;100823.50;6185114;23;47055;-80
2023/09/10 03:56:07;;;;;;;;;10.25;10.25;;;;;25.83;45.27;100825.56;6186368;22;45205;-80
2023/09/10 03:58:32;;;;;;;;;11.00;9.00;;;;;25.65;45.15;100798.53;6184479;23;45291;-81
2023/09/10 04:00:58;;;;;;;;;11.00;10.00;;;;;25.78;45.39;100822.50;6185030;23;45446;-80
2023/09/10 04:03:25;;;;;;;;;10.75;9.75;;;;;25.78;45.41;100826.09;6184722;22;46383;-81
2023/09/10 04:05:51;;;;;;;;;8.75;8.75;;;;;25.76;45.27;100830.84;6184405;22;45312;-82
2023/09/10 04:08:16;;;;;;;;;10.25;10.25;;;;;25.56;45.37;100796.91;6184357;22;45435;-81
2023/09/10 04:10:42;;;;;;;;;9.50;9.50;;;;;25.72;45.58;100829.53;6184857;23;45514;-81
2023/09/10 04:13:07;;;;;;;;;8.75;8.75;;;;;25.64;45.22;100824.06;6186267;22;46002;-81
2023/09/10 04:15:32;;;;;;;;;14.75;9.50;;;;;25.67;45.48;100826.47;6186895;23;45380;-81
2023/09/10 04:17:58;;;;;;;;;14.25;12.75;;;;;25.56;45.33;100813.25;6184596;23;57316;-79
2023/09/10 04:20:23;;;;;;;;;7.50;7.50;;;;;25.61;45.82;100829.88;6185177;23;53085;-81
2023/09/10 04:22:48;;;;;;;;;8.50;8.50;;;;;25.57;45.89;100821.22;6184705;23;45181;-82
2023/09/10 04:25:13;;;;;;;;;11.25;10.25;;;;;25.45;46.21;100813.63;6184855;23;45387;-80
2023/09/10 04:27:39;;;;;;;;;7.50;7.50;;;;;25.56;45.92;100824.97;6185117;22;58989;-81
2023/09/10 04:30:05;;;;;;;;;12.50;10.00;;;;;25.53;46.15;100836.25;6187520;23;55996;-79
2023/09/10 04:32:30;;;;;;;;;11.25;11.00;;;;;25.46;45.95;100826.22;6186297;23;47620;-79
2023/09/10 04:34:55;;;;;;;;;10.75;8.25;;;;;25.49;46.06;100826.69;6184093;23;45265;-81
2023/09/10 04:37:21;;;;;;;;;9.00;8.25;;;;;25.35;45.82;100807.53;6186400;23;45245;-80
2023/09/10 04:39:46;;;;;;;;;9.50;9.50;;;;;25.35;46.02;100804.81;6188606;23;45250;-80
2023/09/10 04:42:11;;;;;;;;;11.75;9.75;;;;;25.48;46.28;100829.59;6187942;22;45351;-81
2023/09/10 04:44:37;;;;;;;;;14.00;10.00;;;;;25.41;45.62;100820.47;6190849;23;55059;-81
2023/09/10 04:47:03;;;;;;;;;10.75;8.75;;;;;25.44;45.98;100831.00;6189412;23;50314;-82
2023/09/10 04:49:29;;;;;;;;;12.50;9.75;;;;;25.37;45.75;100811.78;6189777;22;45525;-81
2023/09/10 04:51:54;;;;;;;;;13.00;12.00;;;;;25.43;45.67;100829.31;6190820;23;44952;-80
2023/09/10 04:54:19;;;;;;;;;11.50;10.00;;;;;25.28;45.55;100797.38;6186995;23;47042;-81
2023/09/10 04:56:47;;;;;;;;;8.00;8.00;;;;;25.47;45.67;100830.63;6191768;23;62209;-82
2023/09/10 04:59:13;;;;;;;;;11.00;9.25;;;;;25.49;45.51;100834.03;6193490;23;45229;-82
2023/09/10 05:01:38;;;;;;;;;11.00;8.25;;;;;25.41;45.33;100829.47;6189526;22;46073;-86
2023/09/10 05:04:04;;;;;;;;;12.00;9.75;;;;;25.46;45.23;100834.38;6187898;23;61672;-81
2023/09/10 05:06:29;;;;;;;;;8.25;8.25;;;;;25.45;45.36;100832.69;6185458;23;45438;-78
2023/09/10 05:08:54;;;;;;;;;10.25;9.75;;;;;25.44;45.30;100839.16;6184057;23;45617;-79
2023/09/10 05:11:19;;;;;;;;;10.00;8.75;;;;;25.42;45.54;100842.06;6184352;23;46668;-80
2023/09/10 05:13:45;;;;;;;;;11.25;7.25;;;;;25.44;45.29;100836.44;6183260;23;45188;-79
2023/09/10 05:16:10;;;;;;;;;8.00;8.00;;;;;25.35;45.54;100824.72;6183858;23;45472;-81
2023/09/10 05:18:35;;;;;;;;;10.50;8.00;;;;;25.35;45.65;100824.72;6183436;23;45154;-79
2023/09/10 05:21:01;;;;;;;;;11.00;9.00;;;;;25.41;45.19;100837.66;6184041;23;45184;-84
2023/09/10 05:23:29;;;;;;;;;10.00;10.00;;;;;25.34;45.33;100824.91;6184023;23;60277;-82
2023/09/10 05:25:55;;;;;;;;;8.75;8.75;;;;;25.35;45.59;100824.72;6185135;23;45357;-81
2023/09/10 05:28:21;;;;;;;;;8.25;7.00;;;;;25.36;45.18;100829.13;6185479;23;45363;-80
2023/09/10 05:30:46;;;;;;;;;6.00;6.00;;;;;25.31;45.07;100830.72;6186524;23;46003;-81
2023/09/10 05:33:11;;;;;;;;;12.00;9.50;;;;;25.37;45.42;100836.28;6184712;23;45371;-80
2023/09/10 05:35:37;;;;;;;;;11.75;8.50;;;;;25.22;45.46;100816.25;6187709;23;45260;-80
2023/09/10 05:38:02;;;;;;;;;2.00;1.25;;;;;25.20;45.31;100818.31;6190074;23;45277;-83
2023/09/10 05:40:27;;;;;;;;;13.00;9.00;;;;;25.36;45.22;100845.47;6188371;22;46443;-81
2023/09/10 05:42:53;;;;;;;;;12.25;9.00;;;;;25.19;45.14;100811.19;6185288;23;52056;-80
2023/09/10 05:45:19;;;;;;;;;11.00;8.25;;;;;25.39;45.15;100838.81;6183937;22;53768;-81
2023/09/10 05:47:44;;;;;;;;;11.50;10.75;;;;;25.35;45.16;100827.44;6185575;22;45245;-80
2023/09/10 05:50:10;;;;;;;;;9.00;9.00;;;;;25.37;45.44;100832.72;6184019;23;46189;-82
2023/09/10 05:52:35;;;;;;;;;14.75;11.50;;;;;25.46;45.06;100845.28;6184073;23;45576;-79
2023/09/10 05:55:01;;;;;;;;;10.50;10.50;;;;;25.53;45.01;100847.13;6183643;22;45169;-81
2023/09/10 05:57:26;;;;;;;;;8.00;8.00;;;;;25.57;45.04;100844.91;6184134;22;45560;-80
2023/09/10 05:59:52;;;;;;;;;12.75;9.50;;;;;25.60;45.21;100852.69;6184448;23;45662;-80
2023/09/10 06:02:18;;;;;;;;;12.75;11.75;;;;;25.64;44.86;100854.03;6183856;23;68040;-80
2023/09/10 06:04:44;;;;;;;;;14.25;9.25;;;;;25.61;45.03;100854.41;6187564;23;45118;-82
2023/09/10 06:07:09;;;;;;;;;10.00;8.00;;;;;25.69;44.61;100861.72;6189466;22;45366;-83
2023/09/10 06:09:34;;;;;;;;;13.25;13.00;;;;;25.70;44.46;100858.81;6187135;23;50632;-83
2023/09/10 06:12:02;;;;;;;;;11.25;9.25;;;;;25.71;43.91;100843.31;6182852;23;45247;-83
2023/09/10 06:14:30;;;;;;;;;13.50;10.75;;;;;25.79;44.25;100855.03;6182924;23;45295;-80
2023/09/10 06:16:56;;;;;;;;;10.00;9.25;;;;;25.84;44.37;100854.50;6179267;23;45105;-82
2023/09/10 06:19:21;;;;;;;;;10.25;10.25;;;;;25.85;44.23;100848.84;6180976;22;45276;-91
2023/09/10 06:21:46;;;;;;;;;9.25;8.50;;;;;25.46;44.08;100771.75;6183098;23;46108;-84
2023/09/10 06:24:12;;;;;;;;;9.00;9.00;;;;;25.85;43.76;100834.38;6184653;23;45165;-87
2023/09/10 06:26:38;;;;;;;;;15.00;15.00;;;;;25.96;44.00;100835.88;6187846;22;45558;-87
2023/09/10 06:29:04;;;;;;;;;14.25;10.25;;;;;26.13;43.69;100856.53;6185873;22;45263;-87
2023/09/10 06:31:29;;;;;;;;;10.75;9.75;;;;;26.13;43.30;100843.72;6186323;23;45377;-88
2023/09/10 06:33:54;;;;;;;;;13.25;11.75;;;;;26.06;43.02;100831.03;6184902;23;45179;-89
2023/09/10 06:36:20;;;;;;;;;7.75;7.75;;;;;25.93;43.00;100809.81;6185911;23;45427;-87
2023/09/10 06:38:47;;;;;;;;;8.50;7.00;;;;;26.20;42.83;100832.97;6184886;22;45580;-87
2023/09/10 06:41:16;;;;;;;;;8.75;8.75;;;;;26.34;42.87;100834.91;6187521;23;44683;-85
2023/09/10 06:43:42;;;;;;;;;10.75;10.50;;;;;26.56;42.81;100859.63;6189646;22;45232;-87
2023/09/10 06:46:07;;;;;;;;;7.25;7.25;;;;;26.51;42.40;100830.19;6187244;22;45545;-88
2023/09/10 06:48:32;;;;;;;;;11.50;9.25;;;;;26.80;42.12;100873.06;6187679;23;45801;-87
2023/09/10 06:51:00;;;;;;;;;11.25;10.00;;;;;26.71;41.93;100831.38;6183070;23;45103;-88
2023/09/10 06:53:26;;;;;;;;;9.50;8.25;;;;;26.87;41.22;100846.72;6181697;23;45459;-87
2023/09/10 06:55:54;;;;;;;;;14.75;10.50;;;;;27.02;41.54;100852.25;6187901;22;45303;-86
2023/09/10 06:58:19;;;;;;;;;7.00;7.00;;;;;26.89;41.63;100828.28;6187504;23;47492;-88
2023/09/10 07:00:46;;;;;;;;;13.50;9.50;;;;;26.65;41.06;100784.88;6188402;23;45254;-87
2023/09/10 07:03:13;;;;;;;;;10.25;8.75;;;;;26.63;41.11;100776.88;6185614;23;44631;-87
2023/09/10 07:05:40;;;;;;;;;11.25;9.75;;;;;27.17;41.11;100863.16;6187998;23;45506;-86
2023/09/10 07:08:05;;;;;;;;;9.50;8.25;;;;;26.93;40.86;100818.69;6183483;22;47406;-87
2023/09/10 07:10:31;;;;;;;;;9.50;9.25;;;;;26.90;41.01;100796.38;6181117;23;45253;-84
2023/09/10 07:12:56;;;;;;;;;9.00;7.75;;;;;27.39;40.96;100862.25;6185608;23;45351;-84
2023/09/10 07:15:22;;;;;;;;;8.75;8.75;;;;;27.24;40.68;100828.63;6184687;22;45535;-87
2023/09/10 07:17:47;;;;;;;;;10.75;9.75;;;;;27.37;40.74;100845.19;6183446;23;46933;-86
2023/09/10 07:20:13;;;;;;;;;7.25;7.25;;;;;27.26;40.63;100834.75;6185262;23;57551;-87
2023/09/10 07:22:38;;;;;;;;;15.75;13.00;;;;;27.33;40.90;100844.69;6181932;23;45363;-87
2023/09/10 07:25:05;;;;;;;;;12.75;12.50;;;;;27.50;40.88;100855.47;6184566;22;45415;-89
2023/09/10 07:27:30;;;;;;;;;14.50;10.25;;;;;27.41;40.82;100849.22;6187072;22;45981;-85
2023/09/10 07:29:56;;;;;;;;;11.25;10.00;;;;;27.52;41.12;100867.03;6195213;23;45114;-86
2023/09/10 07:32:21;;;;;;;;;11.00;10.00;;;;;27.56;40.77;100887.47;6183019;23;45312;-84
2023/09/10 07:34:47;;;;;;;;;10.25;10.25;;;;;27.53;40.54;100877.78;6185402;23;45460;-85
2023/09/10 07:37:12;;;;;;;;;12.50;9.00;;;;;27.66;40.48;100877.13;6186515;23;45413;-84
2023/09/10 07:39:37;;;;;;;;;15.00;9.25;;;;;27.55;40.56;100856.56;6210507;22;45357;-87
2023/09/10 07:42:03;;;;;;;;;9.50;9.00;;;;;27.57;40.37;100879.06;6209962;22;45416;-88
2023/09/10 07:44:28;;;;;;;;;12.00;10.50;;;;;27.65;40.30;100885.53;6188134;22;45627;-84
2023/09/10 07:46:57;;;;;;;;;9.50;9.50;;;;;27.72;40.52;100889.16;6186856;23;56882;-85
2023/09/10 07:49:23;;;;;;;;;12.00;11.50;;;;;27.76;40.30;100885.03;6192192;23;45743;-84
2023/09/10 07:51:49;;;;;;;;;11.50;10.75;;;;;27.73;40.13;100890.88;6193775;23;45303;-83
2023/09/10 07:54:14;;;;;;;;;16.00;11.25;;;;;27.74;40.28;100887.13;6193355;23;45469;-87
2023/09/10 07:56:40;;;;;;;;;10.75;9.75;;;;;27.70;40.52;100867.50;6194326;23;45189;-85
2023/09/10 07:59:08;;;;;;;;;12.00;12.00;;;;;27.83;40.75;100866.81;6186587;23;45831;-82
2023/09/10 08:01:33;;;;;;;;;13.00;12.00;;;;;27.81;39.69;100860.69;6186305;23;45382;-86
2023/09/10 08:03:58;;;;;;;;;10.50;9.50;;;;;28.01;39.34;100864.53;6186451;23;45494;-84
2023/09/10 08:06:23;;;;;;;;;10.25;10.00;;;;;28.04;39.14;100872.34;6184166;23;45384;-84
2023/09/10 08:08:49;;;;;;;;;15.00;11.50;;;;;28.12;39.57;100883.13;6184221;23;45331;-86
2023/09/10 08:11:14;;;;;;;;;9.50;9.50;;;;;28.07;39.18;100882.03;6185748;23;45406;-86
2023/09/10 08:13:42;;;;;;;;;9.00;9.00;;;;;27.95;39.24;100868.03;6184661;22;45331;-86
2023/09/10 08:16:13;;;;;;;;;10.75;10.75;;;;;27.82;39.21;100863.25;6183933;22;45289;-85
2023/09/10 08:18:39;;;;;;;;;12.60;11.80;;;;;27.85;39.59;100851.91;6182666;23;45707;-85
2023/09/10 08:21:04;;;;;;;;;11.80;10.20;;;;;28.02;39.26;100882.63;6185033;23;45381;-85
2023/09/10 08:23:30;;;;;;;;;11.50;10.50;;;;;28.04;38.79;100872.34;6182226;23;52212;-85
2023/09/10 08:25:55;;;;;;;;;9.50;9.00;;;;;28.10;39.28;100870.72;6184148;23;46283;-87
2023/09/10 08:28:20;;;;;;;;;11.00;9.50;;;;;27.84;39.28;100811.13;6185657;23;45956;-86
2023/09/10 08:30:46;;;;;;;;;9.75;9.25;;;;;28.17;38.57;100880.69;6182243;23;45367;-83
2023/09/10 08:33:11;;;;;;;;;12.00;10.00;;;;;28.14;38.80;100872.03;6184643;23;45374;-85
2023/09/10 08:35:47;;;;;;;;;9.25;8.25;;;;;28.18;38.37;100874.19;6183284;23;58772;-86
2023/09/10 08:38:12;;;;;;;;;17.50;12.50;;;;;28.12;38.40;100869.47;6184760;22;45374;-84
2023/09/10 08:40:45;;;;;;;;;9.50;8.75;;;;;28.17;38.24;100877.97;6184698;22;45279;-85
2023/09/10 08:43:14;;;;;;;;;11.25;9.25;;;;;28.30;38.56;100876.44;6186353;22;45315;-87
2023/09/10 08:45:40;;;;;;;;;11.00;11.00;;;;;28.44;39.02;100878.25;6184860;23;47625;-87
2023/09/10 08:48:06;;;;;;;;;9.75;9.75;;;;;28.53;38.62;100877.09;6183599;23;52865;-87
2023/09/10 08:50:32;;;;;;;;;12.25;9.50;;;;;28.60;38.77;100850.63;6190427;22;45360;-84
2023/09/10 08:52:59;;;;;;;;;11.80;11.40;;;;;28.82;37.96;100869.75;6186158;23;45535;-86
2023/09/10 08:55:25;;;;;;;;;8.75;8.00;;;;;28.86;38.63;100865.56;6185099;22;45340;-85
2023/09/10 08:57:54;;;;;;;;;11.00;10.80;;;;;28.84;38.28;100868.50;6184587;23;45309;-86
2023/09/10 09:00:22;;;;;;;;;12.00;10.25;;;;;28.87;38.32;100872.72;6184791;22;45427;-85
2023/09/10 09:02:47;;;;;;;;;9.75;9.75;;;;;28.84;38.18;100856.72;6201418;22;45445;-84
2023/09/10 09:05:13;;;;;;;;;13.75;11.25;;;;;28.91;38.09;100871.31;6193282;22;45241;-86
2023/09/10 09:08:05;;;;;;;;;7.50;7.50;;;;;28.82;38.10;100859.66;6187392;22;45275;-85
2023/09/10 09:10:31;;;;;;;;;10.20;9.20;;;;;28.72;38.26;100837.25;6184058;23;45389;-83
2023/09/10 09:13:01;;;;;;;;;9.00;7.75;;;;;28.79;37.49;100849.09;6186660;23;45539;-83
2023/09/10 09:15:26;;;;;;;;;9.50;9.50;;;;;28.90;37.60;100850.47;6208473;22;48607;-85
2023/09/10 09:17:55;;;;;;;;;10.00;10.00;;;;;28.99;37.76;100852.00;6184720;22;45316;-86
2023/09/10 09:20:22;;;;;;;;;11.80;10.20;;;;;28.98;37.49;100842.09;6184440;22;45244;-84
2023/09/10 09:22:52;;;;;;;;;13.50;13.00;;;;;28.91;37.73;100819.28;6185043;22;45539;-86
2023/09/10 09:25:17;;;;;;;;;10.00;9.00;;;;;29.18;37.47;100865.00;6184719;22;46304;-86
2023/09/10 09:27:43;;;;;;;;;11.50;11.50;;;;;29.24;37.42;100857.88;6184680;23;45299;-86
2023/09/10 09:30:09;;;;;;;;;12.75;12.75;;;;;29.02;37.87;100808.63;6186313;22;45352;-86
2023/09/10 09:32:36;;;;;;;;;12.00;10.75;;;;;29.28;37.57;100832.59;6186846;22;45374;-86
2023/09/10 09:35:03;;;;;;;;;10.00;9.00;;;;;29.45;37.01;100854.19;6187516;23;45211;-87
2023/09/10 09:37:32;;;;;;;;;10.00;9.80;;;;;29.40;36.67;100851.19;6190493;23;45258;-85
2023/09/10 09:40:04;;;;;;;;;10.50;10.50;;;;;29.33;36.76;100830.09;6188921;23;45282;-86
2023/09/10 09:42:30;;;;;;;;;9.75;9.75;;;;;29.49;37.02;100844.53;6189180;22;45269;-86
2023/09/10 09:44:57;;;;;;;;;10.25;9.50;;;;;29.52;36.50;100824.94;6187113;23;46082;-87
2023/09/10 09:47:23;;;;;;;;;7.40;7.40;;;;;29.63;36.98;100830.69;6187796;22;45349;-86
2023/09/10 09:49:48;;;;;;;;;16.75;11.50;;;;;29.57;36.77;100808.75;6191118;22;45255;-84
2023/09/10 09:52:16;;;;;;;;;12.25;8.50;;;;;29.76;37.16;100838.13;6196046;22;45596;-84
2023/09/10 09:54:41;;;;;;;;;12.40;11.80;;;;;29.75;35.90;100832.84;6197999;22;45189;-84
2023/09/10 09:57:07;;;;;;;;;13.00;11.50;;;;;29.75;36.47;100830.94;6202940;23;45185;-83
2023/09/10 09:59:34;;;;;;;;;9.40;9.40;;;;;29.77;36.43;100825.25;6203165;23;44752;-85
2023/09/10 10:02:00;;;;;;;;;13.20;10.40;;;;;29.98;36.44;100827.03;6202392;22;45161;-84
2023/09/10 10:04:26;;;;;;;;;5.25;5.25;;;;;30.01;36.26;100821.97;6201022;22;45453;-83
2023/09/10 10:06:51;;;;;;;;;11.25;10.50;;;;;30.11;35.99;100827.09;6202266;23;45588;-85
2023/09/10 10:09:19;;;;;;;;;8.25;7.75;;;;;30.22;36.24;100832.81;6196075;23;45179;-83
2023/09/10 10:11:44;;;;;;;;;13.25;11.00;;;;;30.02;35.97;100773.44;6189499;23;45555;-85
2023/09/10 10:14:10;;;;;;;;;10.75;10.75;;;;;30.16;35.86;100791.63;6185099;23;46514;-85
2023/09/10 10:16:37;;;;;;;;;10.50;8.75;;;;;30.47;35.59;100822.06;6185463;22;45224;-84
2023/09/10 10:19:03;;;;;;;;;11.20;10.00;;;;;30.22;35.07;100777.09;6184469;23;45301;-85
2023/09/10 10:21:29;;;;;;;;;12.25;11.50;;;;;30.56;35.22;100808.09;6187238;22;45169;-84
2023/09/10 10:23:56;;;;;;;;;11.60;11.60;;;;;30.60;35.59;100814.84;6186227;23;45311;-87
2023/09/10 10:26:22;;;;;;;;;12.80;10.20;;;;;30.72;35.08;100814.03;6186865;23;45347;-86
2023/09/10 10:28:51;;;;;;;;;14.00;10.00;;;;;30.79;35.31;100816.78;6188038;23;45370;-86
2023/09/10 10:31:19;;;;;;;;;11.60;10.80;;;;;30.88;35.19;100811.94;6189498;22;45174;-85
2023/09/10 10:34:04;;;;;;;;;13.40;10.60;;;;;31.07;35.02;100811.88;6188255;23;46544;-85
2023/09/10 10:37:03;;;;;;;;;11.40;9.40;;;;;31.34;34.30;100807.19;6190006;23;44658;-85
2023/09/10 10:39:43;;;;;;;;;11.40;11.40;;;;;31.21;33.47;100773.41;6187783;22;45325;-85
2023/09/10 10:42:12;;;;;;;;;10.80;9.20;;;;;31.27;33.87;100756.91;6183404;22;45228;-86
2023/09/10 10:44:38;;;;;;;;;9.40;9.40;;;;;31.35;33.08;100742.06;6183110;23;45285;-85
2023/09/10 10:47:18;;;;;;;;;11.20;10.20;;;;;32.00;33.57;100811.53;6183468;22;45272;-86
2023/09/10 10:49:51;;;;;;;;;12.00;10.00;;;;;32.02;33.11;100775.56;6183610;22;45181;-85
2023/09/10 10:52:29;;;;;;;;;12.00;12.00;;;;;32.47;32.92;100801.91;6183490;23;45157;-87
2023/09/10 10:54:55;;;;;;;;;12.60;11.40;;;;;32.89;32.47;100796.69;6182475;23;45216;-85
2023/09/10 10:57:22;;;;;;;;;9.60;9.00;;;;;33.03;31.71;100759.66;6183540;22;45321;-85
2023/09/10 10:59:48;;;;;;;;;10.20;10.20;;;;;33.62;31.80;100798.63;6183815;22;45277;-84
2023/09/10 11:02:21;;;;;;;;;11.00;10.40;;;;;33.84;31.35;100788.75;6184990;22;45526;-85
2023/09/10 11:04:57;;;;;;;;;8.80;7.40;;;;;34.06;30.22;100783.56;6184910;22;45498;-87
2023/09/10 11:07:23;;;;;;;;;12.60;10.80;;;;;33.76;30.47;100711.84;6186239;22;45364;-84
2023/09/10 11:09:49;;;;;;;;;12.60;10.80;;;;;34.36;29.64;100778.00;6187504;23;45334;-85
2023/09/10 11:12:15;;;;;;;;;13.50;13.50;;;;;34.63;29.81;100780.31;6185602;22;45395;-86
2023/09/10 11:14:59;;;;;;;;;13.80;13.80;;;;;34.97;29.69;100776.75;6185445;22;45216;-87